createdAt,value
2017-08-27T11:24:43.706Z,52.20
2017-08-27T11:27:24.674Z,52.10
2017-08-27T11:29:52.649Z,51.70
2017-08-27T11:32:19.803Z,51.40
2017-08-27T11:34:53.651Z,50.10
2017-08-27T11:37:21.789Z,50.40
2017-08-27T11:39:49.047Z,50.40
2017-08-27T11:42:16.190Z,50.70
2017-08-27T11:44:44.109Z,48.80
2017-08-27T11:47:11.314Z,49.50
2017-08-27T11:49:39.389Z,49.90
2017-08-27T11:52:06.526Z,49.90
2017-08-27T11:54:33.685Z,49.40
2017-08-27T11:57:01.593Z,49.70
2017-08-27T11:59:29.769Z,50.40
2017-08-27T12:01:56.902Z,52.30
2017-08-27T12:04:24.125Z,54.70
2017-08-27T12:06:52.229Z,53.80
2017-08-27T12:09:20.274Z,55.00
2017-08-27T12:11:48.262Z,54.70
2017-08-27T12:14:15.752Z,54.30
2017-08-27T12:16:42.886Z,53.40
2017-08-27T12:19:10.106Z,53.60
2017-08-27T12:21:37.565Z,52.60
2017-08-27T12:24:04.735Z,52.20
2017-08-27T12:26:31.966Z,52.00
2017-08-27T12:28:59.130Z,53.00
2017-08-27T12:31:26.369Z,53.10
2017-08-27T12:33:54.449Z,53.30
2017-08-27T12:36:22.622Z,51.80
2017-08-27T12:38:49.765Z,51.90
2017-08-27T12:41:17.668Z,50.70
2017-08-27T12:43:44.894Z,50.70
2017-08-27T12:46:12.026Z,50.40
2017-08-27T12:48:40.117Z,49.00
2017-08-27T12:51:08.146Z,50.60
2017-08-27T12:53:36.098Z,49.40
2017-08-27T12:56:03.235Z,50.00
2017-08-27T12:58:30.461Z,50.10
2017-08-27T13:00:57.639Z,50.40
2017-08-27T13:03:24.805Z,50.40
2017-08-27T13:05:52.846Z,50.60
2017-08-27T13:08:20.089Z,50.60
2017-08-27T13:10:47.276Z,50.70
2017-08-27T13:13:14.417Z,51.10
2017-08-27T13:15:41.646Z,51.40
2017-08-27T13:18:09.702Z,51.80
2017-08-27T13:20:38.402Z,51.80
2017-08-27T13:23:05.576Z,51.70
2017-08-27T13:25:33.624Z,51.70
2017-08-27T13:28:01.966Z,51.40
2017-08-27T13:30:29.887Z,51.20
2017-08-27T13:32:58.019Z,51.20
2017-08-27T13:35:25.202Z,50.60
2017-08-27T13:37:52.355Z,50.80
2017-08-27T13:40:20.134Z,50.40
2017-08-27T13:42:48.039Z,50.80
2017-08-27T13:45:16.161Z,50.80
2017-08-27T13:47:44.235Z,51.20
2017-08-27T13:50:12.331Z,51.10
2017-08-27T13:52:39.470Z,51.80
2017-08-27T13:55:06.610Z,50.20
2017-08-27T13:57:33.863Z,50.00
2017-08-27T14:00:01.115Z,49.70
2017-08-27T14:02:29.017Z,50.20
2017-08-27T14:04:56.264Z,50.10
2017-08-27T14:07:24.409Z,50.90
2017-08-27T14:09:52.433Z,51.00
2017-08-27T14:12:20.401Z,51.00
2017-08-27T14:14:47.637Z,50.60
2017-08-27T14:17:14.858Z,50.70
2017-08-27T14:19:42.829Z,51.00
2017-08-27T14:22:10.006Z,51.20
2017-08-27T14:24:38.043Z,51.10
2017-08-27T14:27:06.084Z,51.40
2017-08-27T14:29:33.253Z,51.50
2017-08-27T14:32:01.350Z,51.60
2017-08-27T14:34:29.446Z,51.70
2017-08-27T14:36:57.346Z,51.00
2017-08-27T14:39:25.694Z,50.90
2017-08-27T14:41:52.870Z,51.10
2017-08-27T14:44:20.013Z,50.60
2017-08-27T14:46:48.040Z,50.60
2017-08-27T14:49:15.989Z,51.40
2017-08-27T14:51:43.894Z,51.20
2017-08-27T14:54:12.081Z,51.90
2017-08-27T14:56:40.225Z,52.30
2017-08-27T14:59:08.373Z,52.00
2017-08-27T15:01:36.378Z,52.30
2017-08-27T15:04:04.345Z,51.90
2017-08-27T15:06:32.416Z,52.10
2017-08-27T15:09:00.318Z,52.20
2017-08-27T15:11:28.319Z,52.00
2017-08-27T15:13:55.456Z,52.00
2017-08-27T15:16:23.383Z,52.10
2017-08-27T15:18:51.306Z,51.90
2017-08-27T15:21:19.389Z,51.80
2017-08-27T15:23:47.334Z,52.00
2017-08-27T15:26:15.403Z,52.10
2017-08-27T15:28:42.582Z,52.10
2017-08-27T15:31:10.653Z,52.00
2017-08-27T15:33:38.661Z,52.00
2017-08-27T15:36:06.625Z,51.90
2017-08-27T15:38:34.559Z,52.00
2017-08-27T15:41:02.569Z,51.80
2017-08-27T15:43:29.705Z,51.70
2017-08-27T15:45:57.760Z,51.70
2017-08-27T15:48:25.766Z,51.80
2017-08-27T15:50:53.686Z,51.60
2017-08-27T15:53:21.787Z,51.80
2017-08-27T15:55:49.873Z,51.70
2017-08-27T15:58:17.053Z,51.90
2017-08-27T16:00:44.277Z,51.80
2017-08-27T16:03:11.414Z,51.90
2017-08-27T16:05:39.504Z,51.70
2017-08-27T16:08:07.577Z,51.70
2017-08-27T16:10:34.834Z,51.80
2017-08-27T16:13:02.087Z,51.60
2017-08-27T16:15:29.225Z,51.80
2017-08-27T16:17:56.491Z,51.70
2017-08-27T16:20:23.626Z,51.70
2017-08-27T16:22:51.677Z,51.60
2017-08-27T16:25:18.809Z,51.70
2017-08-27T16:27:45.978Z,51.40
2017-08-27T16:30:13.119Z,51.60
2017-08-27T16:32:40.253Z,51.90
2017-08-27T16:35:07.430Z,51.80
2017-08-27T16:37:34.567Z,51.70
2017-08-27T16:40:01.740Z,51.60
2017-08-27T16:42:28.885Z,51.90
2017-08-27T16:44:56.022Z,51.90
2017-08-27T16:47:29.063Z,51.90
2017-08-27T16:49:56.193Z,51.90
2017-08-27T16:52:23.365Z,51.80
2017-08-27T16:54:50.565Z,51.70
2017-08-27T16:57:17.763Z,51.70
2017-08-27T16:59:44.894Z,51.60
2017-08-27T17:02:12.030Z,49.90
2017-08-27T17:04:39.177Z,50.50
2017-08-27T17:07:06.370Z,50.30
2017-08-27T17:09:33.521Z,50.50
2017-08-27T17:12:00.714Z,50.70
2017-08-27T17:14:27.850Z,50.80
2017-08-27T17:16:54.986Z,50.40
2017-08-27T17:19:22.153Z,50.90
2017-08-27T17:21:49.281Z,51.10
2017-08-27T17:24:16.475Z,51.40
2017-08-27T17:26:43.622Z,51.50
2017-08-27T17:29:10.764Z,51.20
2017-08-27T17:31:37.954Z,51.90
2017-08-27T17:34:05.158Z,52.20
2017-08-27T17:36:32.306Z,52.20
2017-08-27T17:38:59.442Z,52.00
2017-08-27T17:41:26.581Z,52.20
2017-08-27T17:43:53.758Z,52.60
2017-08-27T17:46:21.827Z,52.20
2017-08-27T17:48:48.979Z,52.20
2017-08-27T17:51:16.119Z,52.30
2017-08-27T17:53:43.262Z,52.30
2017-08-27T18:10:02.186Z,52.50
2017-08-27T18:12:29.363Z,52.60
2017-08-27T18:14:57.447Z,53.10
2017-08-27T18:17:24.693Z,52.30
2017-08-27T18:19:51.830Z,52.30
2017-08-27T18:22:19.061Z,52.40
2017-08-27T18:24:46.202Z,52.30
2017-08-27T18:27:13.365Z,52.20
2017-08-27T18:29:40.677Z,52.70
2017-08-27T18:32:07.844Z,53.50
2017-08-27T18:34:35.864Z,52.80
2017-08-27T18:37:03.096Z,53.00
2017-08-27T18:39:30.278Z,53.30
2017-08-27T18:41:57.419Z,53.20
2017-08-27T18:44:25.602Z,53.30
2017-08-27T18:46:52.791Z,53.10
2017-08-27T18:49:20.007Z,52.80
2017-08-27T18:51:47.256Z,52.90
2017-08-27T18:54:14.495Z,52.60
2017-08-27T18:56:41.657Z,52.90
2017-08-27T18:59:08.851Z,52.70
2017-08-27T19:01:37.412Z,52.90
2017-08-27T19:04:04.617Z,52.70
2017-08-27T19:06:31.773Z,52.70
2017-08-27T19:08:59.025Z,52.70
2017-08-27T19:11:26.298Z,52.60
2017-08-27T19:13:53.562Z,52.60
2017-08-27T19:16:20.806Z,52.90
2017-08-27T19:18:48.936Z,53.30
2017-08-27T19:21:16.872Z,54.20
2017-08-27T19:23:44.025Z,53.70
2017-08-27T19:26:11.558Z,53.70
2017-08-27T19:28:39.505Z,53.40
2017-08-27T19:31:06.683Z,53.50
2017-08-27T19:33:33.823Z,53.90
2017-08-27T19:36:01.063Z,53.80
2017-08-27T19:38:29.035Z,53.80
2017-08-27T19:40:57.007Z,53.90
2017-08-27T19:43:24.142Z,53.70
2017-08-27T19:45:51.320Z,53.60
2017-08-27T19:48:18.483Z,53.50
2017-08-27T19:50:45.621Z,53.70
2017-08-27T19:53:13.611Z,53.90
2017-08-27T19:55:40.838Z,53.70
2017-08-27T19:58:08.042Z,53.70
2017-08-27T20:00:35.196Z,53.70
2017-08-27T20:03:02.333Z,53.70
2017-08-27T20:05:29.540Z,53.90
2017-08-27T20:07:56.793Z,53.80
2017-08-27T20:10:24.045Z,53.80
2017-08-27T20:12:51.324Z,54.30
2017-08-27T20:15:18.560Z,53.80
2017-08-27T20:17:45.805Z,53.80
2017-08-27T20:20:13.848Z,54.40
2017-08-27T20:22:41.859Z,54.10
2017-08-27T20:25:09.601Z,54.30
2017-08-27T20:27:37.917Z,54.40
2017-08-27T20:30:05.090Z,54.50
2017-08-27T20:32:33.114Z,54.40
2017-08-27T20:35:00.299Z,54.20
2017-08-27T20:37:27.454Z,54.20
2017-08-27T20:39:55.499Z,54.30
2017-08-27T20:42:22.750Z,54.30
2017-08-27T20:44:50.827Z,54.20
2017-08-27T20:47:17.983Z,54.20
2017-08-27T20:49:45.221Z,54.30
2017-08-27T20:52:12.484Z,54.20
2017-08-27T20:54:39.673Z,54.20
2017-08-27T20:57:06.813Z,54.20
2017-08-27T20:59:33.953Z,54.20
2017-08-27T21:02:01.178Z,54.30
2017-08-27T21:04:28.359Z,54.20
2017-08-27T21:06:55.506Z,54.30
2017-08-27T21:09:22.690Z,54.20
2017-08-27T21:11:49.887Z,54.20
2017-08-27T21:14:17.992Z,54.30
2017-08-27T21:16:45.898Z,54.40
2017-08-27T21:19:14.002Z,54.40
2017-08-27T21:21:41.146Z,54.40
2017-08-27T21:24:08.348Z,54.40
2017-08-27T21:26:35.581Z,54.40
2017-08-27T21:29:02.814Z,54.60
2017-08-27T21:31:30.005Z,55.00
2017-08-27T21:33:57.217Z,55.00
2017-08-27T21:36:24.357Z,55.00
2017-08-27T21:38:51.520Z,54.90
2017-08-27T21:41:18.769Z,55.10
2017-08-27T21:43:46.019Z,54.90
2017-08-27T21:46:13.154Z,54.90
2017-08-27T21:48:40.403Z,54.80
2017-08-27T21:51:07.537Z,54.80
2017-08-27T21:53:35.545Z,54.80
2017-08-27T21:56:03.489Z,54.70
2017-08-27T21:58:31.516Z,54.70
2017-08-27T22:00:58.741Z,54.70
2017-08-27T22:03:25.917Z,54.60
2017-08-27T22:05:53.142Z,54.60
2017-08-27T22:08:20.316Z,54.60
2017-08-27T22:10:47.545Z,54.70
2017-08-27T22:13:14.798Z,55.40
2017-08-27T22:15:41.930Z,54.70
2017-08-27T22:18:09.937Z,54.60
2017-08-27T22:20:37.088Z,54.60
2017-08-27T22:23:04.222Z,54.60
2017-08-27T22:25:31.396Z,54.60
2017-08-27T22:27:58.635Z,54.50
2017-08-27T22:30:25.865Z,54.50
2017-08-27T22:32:52.998Z,54.50
2017-08-27T22:35:20.185Z,54.50
2017-08-27T22:37:47.361Z,54.60
2017-08-27T22:40:15.301Z,54.40
2017-08-27T22:42:43.215Z,54.60
2017-08-27T22:45:11.247Z,54.50
2017-08-27T22:47:38.402Z,54.80
2017-08-27T22:50:05.578Z,55.10
2017-08-27T22:52:32.801Z,55.40
2017-08-27T22:55:00.046Z,55.60
2017-08-27T22:57:28.817Z,55.70
2017-08-27T22:59:55.955Z,55.70
2017-08-27T23:02:23.095Z,55.70
2017-08-27T23:04:50.241Z,55.60
2017-08-27T23:07:17.377Z,55.80
2017-08-27T23:09:44.547Z,55.80
2017-08-27T23:12:12.466Z,55.80
2017-08-27T23:14:39.713Z,55.80
2017-08-27T23:17:08.510Z,55.90
2017-08-27T23:19:35.770Z,55.80
2017-08-27T23:22:03.017Z,55.90
2017-08-27T23:24:30.268Z,56.60
2017-08-27T23:26:57.446Z,55.90
2017-08-27T23:29:25.354Z,56.00
2017-08-27T23:31:52.491Z,56.00
2017-08-27T23:34:19.633Z,55.90
2017-08-27T23:36:46.845Z,55.80
2017-08-27T23:39:14.038Z,55.90
2017-08-27T23:41:42.170Z,55.90
2017-08-27T23:44:09.409Z,55.90
2017-08-27T23:46:37.494Z,56.30
2017-08-27T23:49:05.533Z,56.10
2017-08-27T23:51:32.723Z,56.10
2017-08-27T23:54:00.765Z,56.10
2017-08-27T23:56:28.716Z,56.40
2017-08-27T23:58:56.775Z,56.00
